This is the latest recevied weather packets stored in our database for station/object KSL2-WX. If no packets are shown the sender has not sent any weather packets the latest 10 day(s).
| Time | Temp. | Humidity | Pressure | Rain* | Wind** | Luminosity | Snow |
|---|---|---|---|---|---|---|---|
| 1788617839 | 22.22° C | 47% | 1017.1 hPa | - | - | - | - |
| 1788614239 | 22.78° C | 45% | 1016.9 hPa | - | - | - | - |
| 1788610640 | 23.33° C | 46% | 1016.9 hPa | - | - | - | - |
| 1788607041 | 23.33° C | 49% | 1016.3 hPa | - | - | - | - |
| 1788603439 | 22.78° C | 55% | 1016.5 hPa | - | - | - | - |
| 1788599939 | 21.67° C | 60% | 1016.6 hPa | - | - | - | - |
| 1788596239 | 21.11° C | 61% | 1016.6 hPa | - | - | - | - |
| 1788592638 | 20° C | 67% | 1017.1 hPa | - | - | - | - |
| 1788589039 | 17.78° C | 79% | 1017.7 hPa | - | - | - | - |
| 1788585438 | 16.11° C | 88% | 1018.1 hPa | - | - | - | - |
| 1788584638 | 15.56° C | 90% | 1018 hPa | - | - | - | - |
| 1788581839 | 14.44° C | 92% | 1017.7 hPa | - | - | - | - |
| 1788578239 | 13.33° C | 94% | 1017.6 hPa | - | - | - | - |
| 1788574639 | 12.22° C | 97% | 1017.2 hPa | - | - | - | - |
| 1788571087 | 12.22° C | 97% | 1016.7 hPa | - | - | - | - |
| 1788567439 | 12.78° C | 97% | 1015.8 hPa | - | - | - | - |
| 1788563839 | 13.89° C | 92% | 1015.5 hPa | - | - | - | - |
| 1788560273 | 14.44° C | 92% | 1015.9 hPa | - | - | - | - |
| 1788556639 | 15.56° C | 92% | 1015.6 hPa | - | - | - | - |
| 1788553062 | 15.56° C | 91% | 1015.5 hPa | - | - | - | - |
| 1788549439 | 15.56° C | 90% | 1015.4 hPa | - | - | - | - |
| 1788545839 | 16.67° C | 86% | 1015 hPa | - | - | - | - |
| 1788542240 | 17.22° C | 85% | 1015.3 hPa | - | - | - | - |
| 1788538640 | 18.89° C | 77% | 1013.9 hPa | - | - | - | - |
| 1788535040 | 19.44° C | 75% | 1014.1 hPa | - | - | - | - |
* Rain since midnight (hover to see other rain measurements)
** Current wind speed in m/s (hover to see current wind gust speed)